Time;durP1;ratioP1;P1;durP2;ratioP2;P2;SDS_P1;SDS_P2;PMS_P1;PMS_P2;Temp;Humidity;BMP_temperature;BMP_pressure;BME280_temperature;BME280_humidity;BME280_pressure;Samples;Min_cycle;Max_cycle;Signal;HPM_P1;HPM_P2
2023/03/10 00:02:03;;;;;;;17.02;9.88;;;;;;;8.73;93.00;97101.81;6234162;22;20014;-64
2023/03/10 00:04:28;;;;;;;16.73;10.05;;;;;;;8.43;93.69;97065.31;6234587;22;20054;-63
2023/03/10 00:06:54;;;;;;;17.27;9.75;;;;;;;8.84;92.41;97107.41;6235997;22;20069;-64
2023/03/10 00:09:19;;;;;;;15.05;10.40;;;;;;;8.53;91.96;97047.81;6209918;22;20157;-63
2023/03/10 00:11:45;;;;;;;16.23;9.88;;;;;;;8.63;92.24;97058.78;6210743;22;20080;-64
2023/03/10 00:14:10;;;;;;;16.88;10.00;;;;;;;8.85;91.93;97096.06;6234703;22;20003;-63
2023/03/10 00:16:36;;;;;;;17.50;9.88;;;;;;;8.76;91.70;97085.91;6234014;22;20010;-64
2023/03/10 00:19:01;;;;;;;15.63;9.07;;;;;;;8.91;92.43;97098.94;6262619;22;20011;-63
2023/03/10 00:21:30;;;;;;;18.83;10.73;;;;;;;8.89;91.33;97099.13;6235765;22;20008;-63
2023/03/10 00:23:56;;;;;;;17.83;10.40;;;;;;;8.89;91.38;97099.13;6211752;22;20015;-63
2023/03/10 00:26:22;;;;;;;16.17;9.65;;;;;;;8.87;92.17;97095.06;6231998;22;20038;-64
2023/03/10 00:28:48;;;;;;;15.02;9.63;;;;;;;8.82;93.23;97083.44;6208866;22;20657;-64
2023/03/10 00:31:16;;;;;;;14.93;9.77;;;;;;;8.77;93.74;97085.72;6237294;22;20014;-63
2023/03/10 00:33:43;;;;;;;15.63;9.80;;;;;;;8.60;92.68;97059.09;6237206;22;19999;-63
2023/03/10 00:36:11;;;;;;;18.35;9.90;;;;;;;8.79;92.42;97103.72;6233575;22;20011;-64
2023/03/10 00:38:38;;;;;;;16.70;10.10;;;;;;;8.83;92.96;97105.81;6210432;22;20011;-64
2023/03/10 00:41:05;;;;;;;19.10;10.02;;;;;;;8.60;92.39;97068.66;6210364;22;20515;-63
2023/03/10 00:43:31;;;;;;;16.88;10.27;;;;;;;8.91;92.50;97097.16;6210760;22;20039;-63
2023/03/10 00:45:57;;;;;;;14.43;9.48;;;;;;;8.78;92.45;97070.97;6235312;22;20347;-63
2023/03/10 00:48:22;;;;;;;16.42;10.00;;;;;;;8.68;92.90;97044.50;6234570;22;20004;-65
2023/03/10 00:50:48;;;;;;;15.40;9.52;;;;;;;8.91;93.14;97084.22;6264644;22;20061;-64
2023/03/10 00:53:13;;;;;;;18.05;9.73;;;;;;;8.93;92.89;97091.81;6235130;22;20011;-63
2023/03/10 00:55:39;;;;;;;16.85;9.35;;;;;;;8.96;93.44;97089.69;6236838;22;20149;-64
2023/03/10 00:58:04;;;;;;;16.02;9.68;;;;;;;8.81;94.34;97078.41;6262452;22;20008;-64
2023/03/10 01:00:30;;;;;;;18.02;10.40;;;;;;;8.80;100.00;97079.41;6208474;22;20336;-64
2023/03/10 01:02:55;;;;;;;16.08;9.73;;;;;;;8.76;100.00;97084.13;6264024;22;20004;-65
2023/03/10 01:05:21;;;;;;;16.73;9.95;;;;;;;8.55;100.00;97076.94;6235132;22;20008;-61
2023/03/10 01:07:46;;;;;;;17.55;9.75;;;;;;;8.54;100.00;97082.28;6263026;22;20004;-62
2023/03/10 01:10:12;;;;;;;20.98;9.85;;;;;;;8.63;100.00;97084.69;6263483;22;20007;-62
2023/03/10 01:12:37;;;;;;;16.45;10.02;;;;;;;8.55;100.00;97076.94;6209849;22;20008;-61
2023/03/10 01:15:04;;;;;;;15.15;9.27;;;;;;;8.68;100.00;97075.59;6236143;22;20042;-61
2023/03/10 01:17:30;;;;;;;18.98;10.15;;;;;;;8.75;100.00;97072.13;6235958;22;20095;-62
2023/03/10 01:19:55;;;;;;;16.77;9.70;;;;;;;8.66;100.00;97061.00;6235792;22;20122;-62
2023/03/10 01:22:21;;;;;;;15.88;10.13;;;;;;;8.72;100.00;97059.50;6237719;22;20027;-62
2023/03/10 01:24:46;;;;;;;16.98;9.75;;;;;;;8.68;100.00;97055.66;6211281;22;20692;-62
2023/03/10 01:27:12;;;;;;;17.48;10.35;;;;;;;8.72;100.00;97061.31;6213412;22;20098;-62
2023/03/10 01:29:37;;;;;;;15.82;10.43;;;;;;;8.65;100.00;97061.16;6265377;22;20091;-62
2023/03/10 01:32:03;;;;;;;14.00;9.45;;;;;;;8.60;100.00;97053.94;6237995;22;20372;-62
2023/03/10 01:34:28;;;;;;;19.75;10.50;;;;;;;8.73;100.00;97061.13;6238450;22;20000;-63
2023/03/10 01:36:53;;;;;;;13.70;9.15;;;;;;;8.80;100.00;97063.88;6213011;22;20008;-62
2023/03/10 01:39:19;;;;;;;15.82;9.10;;;;;;;8.78;100.00;97061.44;6237779;22;20069;-62
2023/03/10 01:41:44;;;;;;;15.18;9.05;;;;;;;8.80;99.62;97063.88;6237590;22;20011;-61
2023/03/10 01:44:18;;;;;;;16.10;10.10;;;;;;;8.81;99.42;97050.72;6238159;22;20016;-62
2023/03/10 01:46:49;;;;;;;15.63;9.50;;;;;;;8.92;99.26;97046.13;6212029;22;20080;-61
2023/03/10 01:49:30;;;;;;;13.35;8.90;;;;;;;8.97;99.94;97051.59;6213074;22;20019;-62
2023/03/10 01:52:00;;;;;;;15.60;9.60;;;;;;;8.69;100.00;97002.03;6236073;22;20122;-62
2023/03/10 01:54:32;;;;;;;15.55;9.48;;;;;;;8.97;100.00;97031.66;6212461;22;20455;-63
2023/03/10 01:56:58;;;;;;;20.08;9.40;;;;;;;9.00;99.88;97017.56;6237927;22;20086;-61
2023/03/10 01:59:25;;;;;;;16.20;9.07;;;;;;;9.08;100.00;97014.09;6264157;22;20060;-62
2023/03/10 02:01:51;;;;;;;14.68;9.73;;;;;;;9.11;99.86;97019.75;6235263;22;20692;-62
2023/03/10 02:04:22;;;;;;;20.85;10.27;;;;;;;9.04;99.16;97008.44;6210504;22;20019;-61
2023/03/10 02:06:48;;;;;;;13.13;9.43;;;;;;;8.85;100.00;96991.56;6211294;22;20011;-62
2023/03/10 02:09:15;;;;;;;14.60;10.25;;;;;;;8.79;100.00;96984.50;6235611;22;20695;-63
2023/03/10 02:11:41;;;;;;;18.13;9.85;;;;;;;8.83;100.00;96975.38;6213059;22;20016;-62
2023/03/10 02:14:07;;;;;;;17.60;10.15;;;;;;;8.88;100.00;96954.94;6237786;22;20012;-61
2023/03/10 02:16:33;;;;;;;16.48;9.80;;;;;;;8.69;100.00;96929.50;6212634;22;20014;-61
2023/03/10 02:18:59;;;;;;;16.60;9.93;;;;;;;8.75;100.00;96939.19;6210962;22;20349;-62
2023/03/10 02:21:48;;;;;;;18.02;10.50;;;;;;;8.83;100.00;96957.25;6211815;22;20332;-62
2023/03/10 02:24:45;;;;;;;18.13;10.25;;;;;;;8.79;100.00;96964.56;6211491;22;20107;-61
2023/03/10 02:27:23;;;;;;;15.15;9.75;;;;;;;8.36;100.00;96911.56;6236321;22;20424;-62
2023/03/10 02:30:02;;;;;;;15.70;10.02;;;;;;;8.71;100.00;96949.09;6211916;22;20035;-62
2023/03/10 02:32:30;;;;;;;19.05;10.98;;;;;;;8.77;100.00;96950.16;6236531;22;20827;-62
2023/03/10 02:34:56;;;;;;;19.52;10.30;;;;;;;8.51;100.00;96914.25;6237385;22;20650;-62
2023/03/10 02:37:29;;;;;;;16.73;10.18;;;;;;;8.87;100.00;96968.91;6236627;22;20025;-62
2023/03/10 02:39:56;;;;;;;15.55;10.45;;;;;;;8.97;100.00;96966.06;6236908;22;20103;-62
2023/03/10 02:42:23;;;;;;;18.63;11.07;;;;;;;8.53;100.00;96913.09;6234405;22;20058;-61
2023/03/10 02:44:48;;;;;;;18.08;10.48;;;;;;;8.77;100.00;96958.75;6212122;22;20420;-61
2023/03/10 02:47:15;;;;;;;17.33;11.32;;;;;;;8.84;100.00;96962.25;6237024;22;20129;-61
2023/03/10 02:49:40;;;;;;;17.42;11.30;;;;;;;8.78;100.00;96957.78;6213024;22;20007;-62
2023/03/10 02:52:11;;;;;;;15.93;10.45;;;;;;;8.79;100.00;96953.38;6235921;22;20019;-62
2023/03/10 02:54:36;;;;;;;15.85;10.63;;;;;;;8.50;100.00;96951.50;6238331;22;20039;-61
2023/03/10 02:57:02;;;;;;;18.98;11.40;;;;;;;8.23;100.00;96909.53;6238466;22;20550;-62
2023/03/10 02:59:27;;;;;;;18.05;11.48;;;;;;;8.51;100.00;96958.31;6211557;22;20498;-62
2023/03/10 03:01:53;;;;;;;17.58;10.35;;;;;;;8.61;100.00;96945.91;6212075;22;20016;-62
2023/03/10 03:04:18;;;;;;;18.77;10.95;;;;;;;8.65;100.00;96926.44;6237302;22;20069;-62
2023/03/10 03:06:43;;;;;;;13.73;9.82;;;;;;;8.59;100.00;96903.81;6237892;22;20521;-61
2023/03/10 03:09:09;;;;;;;18.27;10.18;;;;;;;8.69;100.00;96908.75;6210079;22;20007;-62
2023/03/10 03:11:34;;;;;;;16.55;10.18;;;;;;;8.35;100.00;96869.31;6237473;22;20011;-63
2023/03/10 03:14:00;;;;;;;16.33;9.88;;;;;;;8.70;100.00;96910.38;6236240;22;20630;-62
2023/03/10 03:16:25;;;;;;;17.92;11.00;;;;;;;8.77;100.00;96904.31;6235493;22;20655;-62
2023/03/10 03:18:50;;;;;;;15.05;9.90;;;;;;;8.71;100.00;96905.03;6237541;22;20192;-61
2023/03/10 03:21:16;;;;;;;15.18;10.00;;;;;;;8.74;100.00;96904.66;6235293;22;20497;-61
2023/03/10 03:23:43;;;;;;;17.63;10.52;;;;;;;8.50;100.00;96872.00;6212435;22;20432;-62
2023/03/10 03:26:21;;;;;;;16.15;10.68;;;;;;;8.80;100.00;96903.97;6236062;22;20031;-63
2023/03/10 03:28:47;;;;;;;17.50;10.57;;;;;;;8.94;100.00;96904.19;6210447;22;20328;-62
2023/03/10 03:31:14;;;;;;;17.85;10.73;;;;;;;8.59;100.00;96852.81;6263671;22;20007;-63
2023/03/10 03:33:40;;;;;;;20.33;11.18;;;;;;;8.85;100.00;96896.50;6209487;22;20012;-63
2023/03/10 03:36:06;;;;;;;17.90;10.80;;;;;;;8.92;100.00;96891.38;6263858;22;20015;-63
2023/03/10 03:38:31;;;;;;;17.25;10.57;;;;;;;8.94;100.00;96880.84;6237769;22;20122;-62
2023/03/10 03:40:57;;;;;;;17.98;10.70;;;;;;;8.98;100.00;96869.13;6236898;22;20007;-62
2023/03/10 03:43:22;;;;;;;16.75;10.90;;;;;;;9.01;100.00;96868.78;6209678;22;20328;-65
2023/03/10 03:45:47;;;;;;;17.00;10.32;;;;;;;8.94;100.00;96842.75;6210775;22;20016;-62
2023/03/10 03:48:14;;;;;;;18.27;10.50;;;;;;;8.77;100.00;96841.34;6236261;22;20008;-63
2023/03/10 03:50:39;;;;;;;17.15;11.38;;;;;;;8.52;100.00;96776.78;6236685;22;20806;-62
2023/03/10 03:53:04;;;;;;;17.15;10.85;;;;;;;8.78;100.00;96835.97;6210717;22;20004;-62
2023/03/10 03:55:30;;;;;;;15.38;10.05;;;;;;;8.80;100.00;96826.25;6262142;22;20020;-62
2023/03/10 03:57:55;;;;;;;17.67;10.27;;;;;;;8.90;100.00;96843.31;6236021;22;20033;-62
2023/03/10 04:00:23;;;;;;;16.40;10.20;;;;;;;8.94;100.00;96829.00;6262564;22;20008;-63
2023/03/10 04:02:48;;;;;;;16.42;10.48;;;;;;;8.89;100.00;96826.13;6210840;22;20012;-62
2023/03/10 04:05:15;;;;;;;20.02;11.13;;;;;;;8.83;100.00;96831.06;6210417;22;20018;-63
2023/03/10 04:07:41;;;;;;;15.57;10.20;;;;;;;8.89;100.00;96828.72;6236509;22;20011;-62
2023/03/10 04:10:09;;;;;;;16.00;9.85;;;;;;;8.83;100.00;96812.09;6237161;22;20031;-63
2023/03/10 04:12:34;;;;;;;15.50;10.23;;;;;;;8.76;100.00;96806.03;6207059;22;20047;-63
2023/03/10 04:15:00;;;;;;;15.90;9.52;;;;;;;8.81;100.00;96801.13;6210402;22;20077;-62
2023/03/10 04:17:25;;;;;;;15.48;9.65;;;;;;;8.70;100.00;96789.41;6212071;22;20012;-63
2023/03/10 04:19:50;;;;;;;16.55;9.68;;;;;;;8.66;100.00;96793.34;6210319;22;20671;-63
2023/03/10 04:22:16;;;;;;;18.42;9.48;;;;;;;8.56;100.00;96796.19;6236837;22;20004;-62
2023/03/10 04:24:41;;;;;;;15.48;9.80;;;;;;;8.58;100.00;96794.22;6236827;22;20354;-63
2023/03/10 04:27:08;;;;;;;14.88;9.35;;;;;;;8.65;100.00;96796.88;6212183;22;20012;-63
2023/03/10 04:29:35;;;;;;;15.98;9.27;;;;;;;8.47;100.00;96748.03;6210736;22;20015;-62
2023/03/10 04:32:00;;;;;;;17.05;9.95;;;;;;;8.64;100.00;96774.56;6237239;22;20007;-63
2023/03/10 04:34:26;;;;;;;16.58;9.43;;;;;;;8.74;100.00;96769.13;6237781;22;20124;-62
2023/03/10 04:36:51;;;;;;;15.73;8.30;;;;;;;8.85;100.00;96784.22;6211530;22;20012;-63
2023/03/10 04:39:16;;;;;;;17.25;9.55;;;;;;;8.83;100.00;96786.19;6237005;22;20015;-62
2023/03/10 04:41:42;;;;;;;16.30;8.77;;;;;;;8.80;100.00;96779.59;6235346;22;20098;-62
2023/03/10 04:44:08;;;;;;;16.88;9.55;;;;;;;8.39;100.00;96737.69;6236272;22;20015;-61
2023/03/10 04:46:34;;;;;;;16.50;9.15;;;;;;;8.73;100.00;96789.06;6210663;22;20007;-63
2023/03/10 04:48:59;;;;;;;12.80;8.68;;;;;;;8.66;100.00;96781.19;6210982;22;20011;-63
2023/03/10 04:51:25;;;;;;;13.73;8.65;;;;;;;8.75;100.00;96775.94;6236139;22;20008;-62
2023/03/10 04:53:50;;;;;;;16.45;9.10;;;;;;;8.83;100.00;96778.41;6211463;22;20647;-63
2023/03/10 04:56:16;;;;;;;13.63;8.60;;;;;;;8.83;100.00;96773.22;6236472;22;20015;-63
2023/03/10 04:58:41;;;;;;;15.13;9.50;;;;;;;8.91;100.00;96777.50;6212740;22;20012;-63
2023/03/10 05:01:08;;;;;;;15.18;9.48;;;;;;;8.89;100.00;96777.72;6238323;22;20003;-63
2023/03/10 05:03:34;;;;;;;15.23;9.00;;;;;;;8.82;100.00;96775.03;6265076;22;20110;-64
2023/03/10 05:05:59;;;;;;;16.73;8.80;;;;;;;8.62;100.00;96756.59;6237182;22;20062;-62
2023/03/10 05:08:25;;;;;;;15.57;9.05;;;;;;;8.78;100.00;96789.34;6239082;22;20004;-62
2023/03/10 05:10:50;;;;;;;16.42;9.10;;;;;;;8.52;100.00;96743.09;6265245;22;20023;-61
2023/03/10 05:13:15;;;;;;;15.48;9.43;;;;;;;8.84;100.00;96778.25;6212771;22;20011;-62
2023/03/10 05:15:41;;;;;;;14.90;8.90;;;;;;;8.78;100.00;96772.97;6238486;22;20060;-63
2023/03/10 05:18:08;;;;;;;13.57;8.90;;;;;;;8.72;100.00;96764.09;6265560;22;20004;-62
2023/03/10 05:20:34;;;;;;;14.55;9.48;;;;;;;8.81;100.00;96764.84;6211683;22;20011;-63
2023/03/10 05:22:59;;;;;;;14.80;9.07;;;;;;;8.86;100.00;96759.94;6239428;22;20137;-62
2023/03/10 05:25:25;;;;;;;14.23;8.90;;;;;;;8.76;100.00;96729.09;6238254;22;20090;-62
2023/03/10 05:27:50;;;;;;;17.30;9.02;;;;;;;8.96;100.00;96746.69;6213429;22;20290;-62
2023/03/10 05:30:17;;;;;;;13.85;8.48;;;;;;;8.89;100.00;96733.66;6212469;22;20384;-61
2023/03/10 05:32:42;;;;;;;15.27;9.48;;;;;;;8.76;100.00;96728.28;6237783;22;20123;-62
2023/03/10 05:35:09;;;;;;;17.35;9.15;;;;;;;8.57;100.00;96690.78;6239857;22;20719;-62
2023/03/10 05:37:41;;;;;;;17.40;10.32;;;;;;;8.58;100.00;96680.22;6211308;22;20124;-63
2023/03/10 05:40:19;;;;;;;14.88;10.07;;;;;;;8.60;100.00;96709.34;6265858;22;20073;-61
2023/03/10 05:42:46;;;;;;;19.17;10.57;;;;;;;8.62;100.00;96694.44;6210808;22;20018;-62
2023/03/10 05:45:11;;;;;;;18.02;10.63;;;;;;;8.73;100.00;96693.19;6238262;22;20011;-62
2023/03/10 05:47:37;;;;;;;17.27;10.48;;;;;;;8.55;100.00;96659.06;6208713;23;20016;-62
2023/03/10 05:50:03;;;;;;;16.52;9.77;;;;;;;8.67;100.00;96675.78;6207428;23;20086;-62
2023/03/10 05:52:29;;;;;;;14.52;9.73;;;;;;;8.58;100.00;96680.22;6233695;23;20011;-62
2023/03/10 05:54:54;;;;;;;14.98;9.77;;;;;;;8.60;100.00;96682.66;6226415;23;20469;-63
2023/03/10 05:57:19;;;;;;;15.63;9.82;;;;;;;8.46;100.00;96692.00;6230877;23;20512;-63
2023/03/10 05:59:45;;;;;;;15.05;9.32;;;;;;;8.31;100.00;96696.38;6202825;23;20004;-62
2023/03/10 06:02:10;;;;;;;18.35;10.75;;;;;;;8.36;100.00;96696.59;6205975;23;20324;-62
2023/03/10 06:04:36;;;;;;;17.50;9.55;;;;;;;8.31;100.00;96696.38;6232052;23;20008;-63
2023/03/10 06:07:03;;;;;;;13.57;9.07;;;;;;;8.33;100.00;96686.63;6205259;23;20315;-62
2023/03/10 06:09:30;;;;;;;13.68;9.20;;;;;;;8.33;100.00;96671.88;6202623;23;20034;-63
2023/03/10 06:11:57;;;;;;;15.40;9.68;;;;;;;8.33;100.00;96663.31;6205611;23;20011;-63
2023/03/10 06:14:23;;;;;;;15.25;9.90;;;;;;;8.36;100.00;96662.94;6205701;23;20019;-63
2023/03/10 06:16:50;;;;;;;16.08;9.77;;;;;;;8.46;100.00;96660.94;6205553;23;20020;-63
2023/03/10 06:19:22;;;;;;;16.45;9.80;;;;;;;8.60;100.00;96675.69;6187933;23;20089;-64
2023/03/10 06:21:48;;;;;;;15.73;8.77;;;;;;;8.26;100.00;96630.34;6172088;23;20043;-64
2023/03/10 06:24:14;;;;;;;15.05;9.15;;;;;;;8.64;100.00;96682.09;6176642;23;20606;-64
2023/03/10 06:26:40;;;;;;;17.45;9.57;;;;;;;8.68;100.00;96682.53;6201592;23;20023;-62
2023/03/10 06:29:05;;;;;;;15.27;9.43;;;;;;;8.47;100.00;96631.47;6173411;23;20012;-62
2023/03/10 06:31:31;;;;;;;13.98;9.30;;;;;;;8.68;100.00;96674.78;6176753;23;20004;-62
2023/03/10 06:33:58;;;;;;;14.75;9.32;;;;;;;8.63;100.00;96684.88;6176021;23;20624;-61
2023/03/10 06:36:25;;;;;;;18.02;9.75;;;;;;;8.21;100.00;96640.47;6177396;23;20282;-64
2023/03/10 06:38:51;;;;;;;15.20;9.13;;;;;;;8.53;100.00;96703.28;6204673;23;20016;-62
2023/03/10 06:41:17;;;;;;;16.15;9.25;;;;;;;8.48;100.00;96684.88;6177503;23;20008;-62
2023/03/10 06:43:42;;;;;;;16.00;9.38;;;;;;;8.52;100.00;96688.69;6233959;23;20050;-62
2023/03/10 06:46:09;;;;;;;16.33;9.60;;;;;;;8.34;100.00;96645.03;6215117;22;20084;-62
2023/03/10 06:48:35;;;;;;;15.85;9.68;;;;;;;8.65;100.00;96706.22;6235393;22;20014;-63
2023/03/10 06:51:04;;;;;;;18.67;9.05;;;;;;;8.28;100.00;96645.72;6211343;22;20467;-62
2023/03/10 06:53:30;;;;;;;17.23;9.07;;;;;;;8.49;100.00;96662.34;6210054;22;20008;-61
2023/03/10 06:56:05;;;;;;;15.02;9.38;;;;;;;8.50;100.00;96654.41;6234902;22;20038;-62
2023/03/10 06:58:31;;;;;;;15.98;8.95;;;;;;;8.84;100.00;96694.50;6211092;22;20016;-62
2023/03/10 07:00:57;;;;;;;17.17;9.10;;;;;;;8.79;100.00;96692.44;6236591;22;20086;-61
2023/03/10 07:03:25;;;;;;;15.48;8.70;;;;;;;8.49;100.00;96633.88;6236186;22;20038;-62
2023/03/10 07:05:51;;;;;;;16.40;8.75;;;;;;;8.84;100.00;96676.38;6238212;22;20476;-62
2023/03/10 07:08:16;;;;;;;14.52;9.20;;;;;;;8.98;100.00;96665.19;6236095;22;20415;-62
2023/03/10 07:10:42;;;;;;;19.55;9.40;;;;;;;8.45;100.00;96586.78;6212434;22;20089;-63
2023/03/10 07:13:08;;;;;;;17.67;9.93;;;;;;;8.93;100.00;96649.38;6236607;22;20651;-62
2023/03/10 07:15:33;;;;;;;15.60;9.57;;;;;;;8.87;100.00;96649.28;6237155;22;20007;-63
2023/03/10 07:17:59;;;;;;;15.77;9.27;;;;;;;8.88;100.00;96662.06;6236584;22;20901;-62
2023/03/10 07:20:24;;;;;;;17.77;8.82;;;;;;;8.85;100.00;96655.47;6235113;22;20016;-63
2023/03/10 07:22:50;;;;;;;14.68;8.93;;;;;;;8.92;100.00;96641.75;6237152;22;20004;-63
2023/03/10 07:25:15;;;;;;;14.63;9.13;;;;;;;9.07;100.00;96665.84;6211280;22;20216;-62
2023/03/10 07:27:41;;;;;;;15.30;9.05;;;;;;;9.14;100.00;96671.91;6208371;22;20008;-64
2023/03/10 07:30:07;;;;;;;14.25;8.15;;;;;;;9.12;100.00;96681.66;6200481;22;20016;-63
2023/03/10 07:32:33;;;;;;;14.05;8.65;;;;;;;8.91;100.00;96658.28;6207213;22;20122;-63
2023/03/10 07:34:58;;;;;;;14.23;8.50;;;;;;;8.92;100.00;96647.75;6206256;22;20111;-64
2023/03/10 07:37:23;;;;;;;14.07;8.52;;;;;;;9.13;100.00;96677.31;6197682;22;20720;-63
2023/03/10 07:39:49;;;;;;;15.85;9.10;;;;;;;9.02;100.00;96642.28;6206242;22;20023;-63
2023/03/10 07:42:14;;;;;;;17.65;9.45;;;;;;;9.27;100.00;96676.44;6205745;22;20011;-64
2023/03/10 07:44:40;;;;;;;16.88;9.95;;;;;;;9.02;100.00;96635.31;6230953;22;20137;-63
2023/03/10 07:47:06;;;;;;;15.52;9.15;;;;;;;9.36;100.00;96685.75;6258961;22;20012;-62
2023/03/10 07:49:31;;;;;;;15.40;8.95;;;;;;;9.38;100.00;96685.53;6234692;22;20015;-63
2023/03/10 07:51:56;;;;;;;14.25;8.63;;;;;;;9.44;100.00;96687.41;6234989;22;20019;-62
2023/03/10 07:54:22;;;;;;;15.50;8.57;;;;;;;9.13;100.00;96649.59;6233722;22;20011;-63
2023/03/10 07:56:47;;;;;;;22.73;11.52;;;;;;;9.40;100.00;96688.75;6260729;22;20078;-62
2023/03/10 07:59:13;;;;;;;15.07;8.65;;;;;;;9.27;100.00;96681.63;6206854;22;20000;-62
2023/03/10 08:01:38;;;;;;;15.00;8.38;;;;;;;9.09;100.00;96639.75;6234937;22;20152;-62
2023/03/10 08:04:05;;;;;;;13.73;8.00;;;;;;;9.42;100.00;96669.44;6235232;22;20065;-63
2023/03/10 08:06:31;;;;;;;14.82;8.05;;;;;;;9.43;100.00;96658.03;6235508;22;20008;-63
2023/03/10 08:08:57;;;;;;;13.60;7.47;;;;;;;9.18;100.00;96617.91;6237302;22;20019;-62
2023/03/10 08:11:23;;;;;;;21.13;8.93;;;;;;;9.54;100.00;96666.34;6263038;22;20034;-63
2023/03/10 08:13:49;;;;;;;15.75;8.50;;;;;;;9.62;100.00;96685.19;6211049;22;20255;-62
2023/03/10 08:16:16;;;;;;;16.63;8.13;;;;;;;9.65;100.00;96681.41;6210533;22;20782;-63
2023/03/10 08:18:41;;;;;;;14.05;7.55;;;;;;;9.60;100.00;96676.78;6211724;22;20035;-62
2023/03/10 08:21:07;;;;;;;13.10;7.25;;;;;;;9.61;100.00;96678.38;6210598;22;20057;-64
2023/03/10 08:23:33;;;;;;;10.82;6.97;;;;;;;9.61;100.00;96660.22;6236691;22;20003;-62
2023/03/10 08:26:01;;;;;;;10.85;7.00;;;;;;;9.75;100.00;96679.31;6263102;22;20003;-62
2023/03/10 08:28:29;;;;;;;15.30;7.45;;;;;;;9.66;100.00;96669.25;6236271;22;20007;-63
2023/03/10 08:30:56;;;;;;;13.02;6.72;;;;;;;9.64;100.00;96672.03;6211212;22;20414;-62
2023/03/10 08:33:21;;;;;;;12.90;6.78;;;;;;;9.57;100.00;96656.38;6234296;22;20057;-62
2023/03/10 08:35:47;;;;;;;11.23;6.80;;;;;;;9.67;100.00;96661.25;6263792;22;20011;-62
2023/03/10 08:38:12;;;;;;;12.95;6.90;;;;;;;9.74;100.00;96653.53;6236036;22;20715;-62
2023/03/10 08:40:37;;;;;;;13.10;7.53;;;;;;;9.80;100.00;96652.78;6234074;22;20375;-63
2023/03/10 08:43:04;;;;;;;14.60;8.40;;;;;;;9.75;100.00;96635.19;6235577;22;20413;-62
2023/03/10 08:45:33;;;;;;;13.60;7.70;;;;;;;9.77;100.00;96640.19;6234946;22;20016;-62
2023/03/10 08:47:58;;;;;;;14.07;7.38;;;;;;;9.80;100.00;96642.41;6262456;22;20089;-63
2023/03/10 08:50:23;;;;;;;13.43;7.53;;;;;;;9.79;100.00;96641.59;6235659;22;20047;-62
2023/03/10 08:52:49;;;;;;;11.90;6.40;;;;;;;9.92;100.00;96642.69;6263926;22;20010;-63
2023/03/10 08:55:14;;;;;;;10.70;6.20;;;;;;;10.02;100.00;96650.97;6234219;22;20004;-63
2023/03/10 08:57:40;;;;;;;14.60;6.85;;;;;;;9.99;99.66;96659.94;6236174;22;20365;-63
2023/03/10 09:00:06;;;;;;;11.55;5.43;;;;;;;9.92;99.32;96666.06;6236383;22;20706;-62
2023/03/10 09:02:32;;;;;;;11.45;5.57;;;;;;;9.84;100.00;96687.78;6263493;22;20078;-62
2023/03/10 09:04:57;;;;;;;9.43;5.65;;;;;;;9.87;100.00;96702.16;6236322;22;20008;-62
2023/03/10 09:07:23;;;;;;;12.82;6.40;;;;;;;9.54;100.00;96700.06;6237015;22;20011;-63
2023/03/10 09:09:48;;;;;;;13.07;5.88;;;;;;;9.66;100.00;96703.00;6234860;22;20003;-62
2023/03/10 09:12:14;;;;;;;10.80;6.10;;;;;;;9.65;100.00;96702.16;6236407;22;20608;-63
2023/03/10 09:14:39;;;;;;;11.25;5.55;;;;;;;9.72;100.00;96703.03;6263106;22;20007;-63
2023/03/10 09:17:05;;;;;;;12.82;5.50;;;;;;;9.45;99.50;96651.88;6235531;22;20003;-62
2023/03/10 09:19:30;;;;;;;12.95;5.20;;;;;;;9.71;99.25;96706.63;6211013;22;20168;-62
2023/03/10 09:21:56;;;;;;;9.55;4.60;;;;;;;9.73;98.92;96693.44;6235513;22;20069;-62
2023/03/10 09:24:23;;;;;;;8.55;4.90;;;;;;;9.94;98.33;96690.03;6235969;22;20035;-62
2023/03/10 09:26:48;;;;;;;10.25;4.70;;;;;;;9.70;96.45;96640.13;6210718;22;20047;-62
2023/03/10 09:29:14;;;;;;;8.98;4.90;;;;;;;10.22;95.75;96684.06;6234570;22;20039;-61
2023/03/10 09:31:39;;;;;;;11.70;5.05;;;;;;;10.32;95.65;96669.78;6210434;22;20007;-63
2023/03/10 09:34:07;;;;;;;9.18;5.00;;;;;;;9.97;97.04;96650.72;6209057;22;20345;-62
2023/03/10 09:36:32;;;;;;;11.65;4.45;;;;;;;10.04;97.09;96653.34;6236764;22;20043;-62
2023/03/10 09:38:58;;;;;;;10.60;4.43;;;;;;;10.22;95.60;96653.69;6236413;22;20115;-62
2023/03/10 09:41:45;;;;;;;11.18;4.55;;;;;;;10.61;94.44;96699.13;6236102;22;20004;-62
2023/03/10 09:44:48;;;;;;;11.10;3.90;;;;;;;10.46;94.51;96691.44;6238396;22;20057;-62
2023/03/10 09:47:23;;;;;;;7.80;3.90;;;;;;;10.18;96.60;96660.25;6237956;22;20103;-62
2023/03/10 09:50:07;;;;;;;7.13;3.58;;;;;;;10.34;98.48;96700.75;6265247;22;20064;-63
2023/03/10 09:52:37;;;;;;;7.65;3.85;;;;;;;10.43;96.40;96702.22;6265515;22;20006;-61
2023/03/10 09:55:22;;;;;;;7.75;4.20;;;;;;;10.43;93.70;96698.81;6265613;22;20519;-62
2023/03/10 09:57:53;;;;;;;6.70;3.17;;;;;;;10.57;91.13;96705.72;6213167;22;20011;-62
2023/03/10 10:00:26;;;;;;;7.05;3.58;;;;;;;10.56;90.86;96704.88;6213377;22;20556;-61
2023/03/10 10:03:05;;;;;;;7.20;3.38;;;;;;;10.26;93.65;96667.09;6237948;22;20035;-63
2023/03/10 10:05:33;;;;;;;9.20;3.97;;;;;;;10.42;92.63;96705.00;6238302;22;20012;-62
2023/03/10 10:08:01;;;;;;;9.05;3.50;;;;;;;10.38;92.11;96696.78;6236708;22;20003;-62
2023/03/10 10:10:28;;;;;;;8.05;3.50;;;;;;;9.98;93.37;96647.97;6238281;22;20339;-62
2023/03/10 10:12:57;;;;;;;8.55;3.35;;;;;;;9.76;96.49;96636.78;6238254;22;20399;-62
2023/03/10 10:15:24;;;;;;;6.85;3.42;;;;;;;10.03;95.58;96657.75;6237032;22;20601;-62
2023/03/10 10:18:11;;;;;;;7.03;3.15;;;;;;;10.24;96.66;96664.72;6237503;22;20011;-63
2023/03/10 10:20:48;;;;;;;5.97;3.03;;;;;;;10.39;95.88;96660.22;6265090;22;20011;-62
2023/03/10 10:23:24;;;;;;;6.55;3.42;;;;;;;10.70;95.28;96669.38;6212187;22;20007;-62
2023/03/10 10:25:49;;;;;;;6.78;3.15;;;;;;;10.94;92.80;96662.09;6237107;22;20450;-63
2023/03/10 10:28:25;;;;;;;10.60;3.60;;;;;;;10.92;90.69;96651.09;6237744;22;20015;-62
2023/03/10 10:30:51;;;;;;;8.75;3.75;;;;;;;10.86;89.73;96631.88;6238479;22;20023;-62
2023/03/10 10:33:16;;;;;;;7.47;3.92;;;;;;;10.96;89.44;96637.47;6212778;22;20007;-61
2023/03/10 10:35:44;;;;;;;9.75;3.75;;;;;;;11.08;88.42;96627.34;6212248;22;20003;-62
2023/03/10 10:38:10;;;;;;;6.15;3.35;;;;;;;11.18;88.53;96644.34;6212562;22;20043;-63
2023/03/10 10:41:00;;;;;;;10.50;4.35;;;;;;;10.98;89.50;96645.09;6237571;22;20081;-62
2023/03/10 10:43:26;;;;;;;8.93;4.47;;;;;;;11.03;89.73;96650.50;6264954;22;20007;-62
2023/03/10 10:45:54;;;;;;;7.93;3.67;;;;;;;11.06;87.53;96655.34;6238159;22;20015;-62
2023/03/10 10:48:34;;;;;;;9.57;3.83;;;;;;;11.18;87.56;96650.34;6211757;22;20797;-62
2023/03/10 10:51:00;;;;;;;;;;;;;;;11.37;87.36;96650.59;6212548;22;20004;-62
2023/03/10 10:53:27;;;;;;;7.70;4.40;;;;;;;11.30;85.28;96643.59;6211684;22;19953;-62
2023/03/10 10:56:06;;;;;;;7.78;4.07;;;;;;;11.44;84.38;96654.81;6236680;22;20086;-62
2023/03/10 10:58:39;;;;;;;8.93;4.95;;;;;;;11.55;83.76;96648.22;6235951;22;20014;-62
2023/03/10 11:01:07;;;;;;;9.25;4.50;;;;;;;11.49;83.50;96602.97;6237988;22;20003;-63
2023/03/10 11:03:36;;;;;;;10.98;5.28;;;;;;;11.59;81.87;96639.03;6237400;22;20004;-63
2023/03/10 11:06:13;;;;;;;8.25;5.00;;;;;;;11.53;82.90;96637.19;6211463;22;20012;-63
2023/03/10 11:08:41;;;;;;;10.60;5.10;;;;;;;11.34;83.74;96592.75;6237203;22;20031;-63
2023/03/10 11:11:13;;;;;;;10.73;4.60;;;;;;;11.87;82.83;96633.63;6211538;22;20087;-62
2023/03/10 11:14:16;;;;;;;9.15;4.20;;;;;;;11.89;81.93;96630.81;6237613;22;20053;-62
2023/03/10 11:16:45;;;;;;;12.27;4.70;;;;;;;11.86;80.30;96631.19;6236812;22;20012;-61
2023/03/10 11:19:20;;;;;;;13.55;6.45;;;;;;;11.93;81.33;96621.63;6263604;22;20013;-62
2023/03/10 11:21:50;;;;;;;9.23;4.88;;;;;;;11.94;80.97;96618.03;6264331;22;20358;-62
2023/03/10 11:24:16;;;;;;;;;;;;;;;11.92;81.79;96618.22;6236543;22;20018;-62
2023/03/10 11:26:51;;;;;;;11.00;5.28;;;;;;;11.95;81.73;96616.22;6237323;22;19934;-62
2023/03/10 11:29:46;;;;;;;11.82;6.03;;;;;;;11.85;82.33;96606.19;6235239;22;20094;-62